sensor_id;sensor_type;location;lat;lon;timestamp;temperature;humidity
17421;DHT22;8828;48.800;9.540;2022-11-02T00:00:30;10.20;99.90
17421;DHT22;8828;48.800;9.540;2022-11-02T00:02:59;10.20;99.90
17421;DHT22;8828;48.800;9.540;2022-11-02T00:05:29;10.20;99.90
17421;DHT22;8828;48.800;9.540;2022-11-02T00:07:57;10.20;99.90
17421;DHT22;8828;48.800;9.540;2022-11-02T00:10:24;10.20;99.90
17421;DHT22;8828;48.800;9.540;2022-11-02T00:12:52;10.20;99.90
17421;DHT22;8828;48.800;9.540;2022-11-02T00:15:21;10.10;99.90
17421;DHT22;8828;48.800;9.540;2022-11-02T00:17:53;10.10;99.90
17421;DHT22;8828;48.800;9.540;2022-11-02T00:20:23;10.10;99.90
17421;DHT22;8828;48.800;9.540;2022-11-02T00:22:56;10.00;99.90
17421;DHT22;8828;48.800;9.540;2022-11-02T00:25:25;10.00;99.90
17421;DHT22;8828;48.800;9.540;2022-11-02T00:27:53;10.00;99.90
17421;DHT22;8828;48.800;9.540;2022-11-02T00:30:21;10.00;99.90
17421;DHT22;8828;48.800;9.540;2022-11-02T00:32:49;10.00;99.90
17421;DHT22;8828;48.800;9.540;2022-11-02T00:35:17;9.90;99.90
17421;DHT22;8828;48.800;9.540;2022-11-02T00:37:45;9.90;99.90
17421;DHT22;8828;48.800;9.540;2022-11-02T00:40:15;9.90;99.90
17421;DHT22;8828;48.800;9.540;2022-11-02T00:42:42;9.90;99.90
17421;DHT22;8828;48.800;9.540;2022-11-02T00:45:10;9.90;99.90
17421;DHT22;8828;48.800;9.540;2022-11-02T00:47:38;9.80;99.90
17421;DHT22;8828;48.800;9.540;2022-11-02T00:50:07;9.80;99.90
17421;DHT22;8828;48.800;9.540;2022-11-02T00:52:37;9.70;99.90
17421;DHT22;8828;48.800;9.540;2022-11-02T00:55:06;9.70;99.90
17421;DHT22;8828;48.800;9.540;2022-11-02T00:57:36;9.70;99.90
17421;DHT22;8828;48.800;9.540;2022-11-02T01:00:06;9.70;99.90
17421;DHT22;8828;48.800;9.540;2022-11-02T01:02:35;9.70;99.90
17421;DHT22;8828;48.800;9.540;2022-11-02T01:05:05;9.60;99.90
17421;DHT22;8828;48.800;9.540;2022-11-02T01:07:33;9.60;99.90
17421;DHT22;8828;48.800;9.540;2022-11-02T01:10:03;9.60;99.90
17421;DHT22;8828;48.800;9.540;2022-11-02T01:12:31;9.60;99.90
17421;DHT22;8828;48.800;9.540;2022-11-02T01:15:01;9.50;99.90
17421;DHT22;8828;48.800;9.540;2022-11-02T01:17:29;9.50;99.90
17421;DHT22;8828;48.800;9.540;2022-11-02T01:19:56;9.50;99.90
17421;DHT22;8828;48.800;9.540;2022-11-02T01:22:24;9.50;99.90
17421;DHT22;8828;48.800;9.540;2022-11-02T01:24:52;9.50;99.90
17421;DHT22;8828;48.800;9.540;2022-11-02T01:27:21;9.50;99.90
17421;DHT22;8828;48.800;9.540;2022-11-02T01:29:49;9.50;99.90
17421;DHT22;8828;48.800;9.540;2022-11-02T01:32:18;9.40;99.90
17421;DHT22;8828;48.800;9.540;2022-11-02T01:34:46;9.40;99.90
17421;DHT22;8828;48.800;9.540;2022-11-02T01:37:14;9.40;99.90
17421;DHT22;8828;48.800;9.540;2022-11-02T01:39:42;9.40;99.90
17421;DHT22;8828;48.800;9.540;2022-11-02T01:42:17;9.30;99.90
17421;DHT22;8828;48.800;9.540;2022-11-02T01:44:45;9.30;99.90
17421;DHT22;8828;48.800;9.540;2022-11-02T01:47:18;9.30;99.90
17421;DHT22;8828;48.800;9.540;2022-11-02T01:49:49;9.30;99.90
17421;DHT22;8828;48.800;9.540;2022-11-02T01:52:21;9.30;99.90
17421;DHT22;8828;48.800;9.540;2022-11-02T01:54:52;9.30;99.90
17421;DHT22;8828;48.800;9.540;2022-11-02T01:57:21;9.30;99.90
17421;DHT22;8828;48.800;9.540;2022-11-02T01:59:52;9.30;99.90
17421;DHT22;8828;48.800;9.540;2022-11-02T02:02:23;9.30;99.90
17421;DHT22;8828;48.800;9.540;2022-11-02T02:04:54;9.30;99.90
17421;DHT22;8828;48.800;9.540;2022-11-02T02:07:25;9.30;99.90
17421;DHT22;8828;48.800;9.540;2022-11-02T02:09:54;9.30;99.90
17421;DHT22;8828;48.800;9.540;2022-11-02T02:12:23;9.30;99.90
17421;DHT22;8828;48.800;9.540;2022-11-02T02:14:52;9.30;99.90
17421;DHT22;8828;48.800;9.540;2022-11-02T02:17:29;9.30;99.90
17421;DHT22;8828;48.800;9.540;2022-11-02T02:20:02;9.30;99.90
17421;DHT22;8828;48.800;9.540;2022-11-02T02:22:47;9.30;99.90
17421;DHT22;8828;48.800;9.540;2022-11-02T02:25:39;9.30;99.90
17421;DHT22;8828;48.800;9.540;2022-11-02T02:28:18;9.30;99.90
17421;DHT22;8828;48.800;9.540;2022-11-02T02:30:50;9.30;99.90
17421;DHT22;8828;48.800;9.540;2022-11-02T02:33:27;9.30;99.90
17421;DHT22;8828;48.800;9.540;2022-11-02T02:35:59;9.30;99.90
17421;DHT22;8828;48.800;9.540;2022-11-02T02:38:33;9.30;99.90
17421;DHT22;8828;48.800;9.540;2022-11-02T02:41:09;9.30;99.90
17421;DHT22;8828;48.800;9.540;2022-11-02T02:43:43;9.30;99.90
17421;DHT22;8828;48.800;9.540;2022-11-02T02:46:17;9.30;99.90
17421;DHT22;8828;48.800;9.540;2022-11-02T02:48:46;9.30;99.90
17421;DHT22;8828;48.800;9.540;2022-11-02T02:51:18;9.30;99.90
17421;DHT22;8828;48.800;9.540;2022-11-02T02:53:49;9.30;99.90
17421;DHT22;8828;48.800;9.540;2022-11-02T02:56:20;9.30;99.90
17421;DHT22;8828;48.800;9.540;2022-11-02T02:58:54;9.20;99.90
17421;DHT22;8828;48.800;9.540;2022-11-02T03:01:24;9.20;99.90
17421;DHT22;8828;48.800;9.540;2022-11-02T03:03:53;9.20;99.90
17421;DHT22;8828;48.800;9.540;2022-11-02T03:06:25;9.20;99.90
17421;DHT22;8828;48.800;9.540;2022-11-02T03:09:02;9.20;99.90
17421;DHT22;8828;48.800;9.540;2022-11-02T03:11:32;9.20;99.90
17421;DHT22;8828;48.800;9.540;2022-11-02T03:14:07;9.30;99.90
17421;DHT22;8828;48.800;9.540;2022-11-02T03:16:54;9.30;99.90
17421;DHT22;8828;48.800;9.540;2022-11-02T03:19:33;9.20;99.90
17421;DHT22;8828;48.800;9.540;2022-11-02T03:22:08;9.30;99.90
17421;DHT22;8828;48.800;9.540;2022-11-02T03:24:44;9.20;99.90
17421;DHT22;8828;48.800;9.540;2022-11-02T03:27:17;9.30;99.90
17421;DHT22;8828;48.800;9.540;2022-11-02T03:29:52;9.30;99.90
17421;DHT22;8828;48.800;9.540;2022-11-02T03:32:25;9.30;99.90
17421;DHT22;8828;48.800;9.540;2022-11-02T03:34:57;9.20;99.90
17421;DHT22;8828;48.800;9.540;2022-11-02T03:37:28;9.20;99.90
17421;DHT22;8828;48.800;9.540;2022-11-02T03:40:02;9.20;99.90
17421;DHT22;8828;48.800;9.540;2022-11-02T03:42:33;9.20;99.90
17421;DHT22;8828;48.800;9.540;2022-11-02T03:45:08;9.10;99.90
17421;DHT22;8828;48.800;9.540;2022-11-02T03:47:38;9.20;99.90
17421;DHT22;8828;48.800;9.540;2022-11-02T03:50:08;9.20;99.90
17421;DHT22;8828;48.800;9.540;2022-11-02T03:52:40;9.20;99.90
17421;DHT22;8828;48.800;9.540;2022-11-02T03:55:12;9.30;99.90
17421;DHT22;8828;48.800;9.540;2022-11-02T03:57:45;9.30;99.90
17421;DHT22;8828;48.800;9.540;2022-11-02T04:00:16;9.30;99.90
17421;DHT22;8828;48.800;9.540;2022-11-02T04:02:46;9.30;99.90
17421;DHT22;8828;48.800;9.540;2022-11-02T04:05:15;9.30;99.90
17421;DHT22;8828;48.800;9.540;2022-11-02T04:07:47;9.30;99.90
17421;DHT22;8828;48.800;9.540;2022-11-02T04:10:45;9.30;99.90
17421;DHT22;8828;48.800;9.540;2022-11-02T04:13:31;9.30;99.90
17421;DHT22;8828;48.800;9.540;2022-11-02T04:16:18;9.40;99.90
17421;DHT22;8828;48.800;9.540;2022-11-02T04:18:53;9.40;99.90
17421;DHT22;8828;48.800;9.540;2022-11-02T04:21:39;9.40;99.90
17421;DHT22;8828;48.800;9.540;2022-11-02T04:24:27;9.30;99.90
17421;DHT22;8828;48.800;9.540;2022-11-02T04:27:12;9.30;99.90
17421;DHT22;8828;48.800;9.540;2022-11-02T04:29:46;9.30;99.90
17421;DHT22;8828;48.800;9.540;2022-11-02T04:32:16;9.40;99.90
17421;DHT22;8828;48.800;9.540;2022-11-02T04:35:05;9.30;99.90
17421;DHT22;8828;48.800;9.540;2022-11-02T04:37:37;9.30;99.90
17421;DHT22;8828;48.800;9.540;2022-11-02T04:40:22;9.40;99.90
17421;DHT22;8828;48.800;9.540;2022-11-02T04:42:50;9.30;99.90
17421;DHT22;8828;48.800;9.540;2022-11-02T04:45:17;9.40;99.90
17421;DHT22;8828;48.800;9.540;2022-11-02T04:47:46;9.40;99.90
17421;DHT22;8828;48.800;9.540;2022-11-02T04:50:14;9.40;99.90
17421;DHT22;8828;48.800;9.540;2022-11-02T04:52:42;9.40;99.90
17421;DHT22;8828;48.800;9.540;2022-11-02T04:55:10;9.40;99.90
17421;DHT22;8828;48.800;9.540;2022-11-02T04:57:43;9.30;99.90
17421;DHT22;8828;48.800;9.540;2022-11-02T05:00:12;9.30;99.90
17421;DHT22;8828;48.800;9.540;2022-11-02T05:02:41;9.30;99.90
17421;DHT22;8828;48.800;9.540;2022-11-02T05:05:10;9.30;99.90
17421;DHT22;8828;48.800;9.540;2022-11-02T05:07:38;9.30;99.90
17421;DHT22;8828;48.800;9.540;2022-11-02T05:10:06;9.30;99.90
17421;DHT22;8828;48.800;9.540;2022-11-02T05:12:34;9.30;99.90
17421;DHT22;8828;48.800;9.540;2022-11-02T05:15:03;9.20;99.90
17421;DHT22;8828;48.800;9.540;2022-11-02T05:17:31;9.30;99.90
17421;DHT22;8828;48.800;9.540;2022-11-02T05:19:59;9.20;99.90
17421;DHT22;8828;48.800;9.540;2022-11-02T05:22:29;9.20;99.90
17421;DHT22;8828;48.800;9.540;2022-11-02T05:24:57;9.20;99.90
17421;DHT22;8828;48.800;9.540;2022-11-02T05:27:25;9.20;99.90
17421;DHT22;8828;48.800;9.540;2022-11-02T05:29:53;9.10;99.90
17421;DHT22;8828;48.800;9.540;2022-11-02T05:32:21;9.10;99.90
17421;DHT22;8828;48.800;9.540;2022-11-02T05:34:49;9.10;99.90
17421;DHT22;8828;48.800;9.540;2022-11-02T05:37:17;9.10;99.90
17421;DHT22;8828;48.800;9.540;2022-11-02T05:39:46;9.00;99.90
17421;DHT22;8828;48.800;9.540;2022-11-02T05:42:16;9.00;99.90
17421;DHT22;8828;48.800;9.540;2022-11-02T05:44:44;8.90;99.90
17421;DHT22;8828;48.800;9.540;2022-11-02T05:47:12;9.00;99.90
17421;DHT22;8828;48.800;9.540;2022-11-02T05:49:40;9.00;99.90
17421;DHT22;8828;48.800;9.540;2022-11-02T05:52:08;9.00;99.90
17421;DHT22;8828;48.800;9.540;2022-11-02T05:54:35;8.90;99.90
17421;DHT22;8828;48.800;9.540;2022-11-02T05:57:05;8.90;99.90
17421;DHT22;8828;48.800;9.540;2022-11-02T05:59:33;8.90;99.90
17421;DHT22;8828;48.800;9.540;2022-11-02T06:02:01;8.90;99.90
17421;DHT22;8828;48.800;9.540;2022-11-02T06:04:29;8.90;99.90
17421;DHT22;8828;48.800;9.540;2022-11-02T06:06:57;8.90;99.90
17421;DHT22;8828;48.800;9.540;2022-11-02T06:09:24;8.90;99.90
17421;DHT22;8828;48.800;9.540;2022-11-02T06:11:54;8.80;99.90
17421;DHT22;8828;48.800;9.540;2022-11-02T06:14:24;8.80;99.90
17421;DHT22;8828;48.800;9.540;2022-11-02T06:16:51;8.80;99.90
17421;DHT22;8828;48.800;9.540;2022-11-02T06:19:19;8.90;99.90
17421;DHT22;8828;48.800;9.540;2022-11-02T06:21:47;8.90;99.90
17421;DHT22;8828;48.800;9.540;2022-11-02T06:24:15;8.90;99.90
17421;DHT22;8828;48.800;9.540;2022-11-02T06:26:43;8.90;99.90
17421;DHT22;8828;48.800;9.540;2022-11-02T06:29:12;9.00;99.90
17421;DHT22;8828;48.800;9.540;2022-11-02T06:31:41;9.00;99.90
17421;DHT22;8828;48.800;9.540;2022-11-02T06:34:09;9.10;99.90
17421;DHT22;8828;48.800;9.540;2022-11-02T06:36:37;9.10;99.90
17421;DHT22;8828;48.800;9.540;2022-11-02T06:39:05;9.20;99.90
17421;DHT22;8828;48.800;9.540;2022-11-02T06:41:33;9.20;99.90
17421;DHT22;8828;48.800;9.540;2022-11-02T06:44:01;9.20;99.90
17421;DHT22;8828;48.800;9.540;2022-11-02T06:46:29;9.20;99.90
17421;DHT22;8828;48.800;9.540;2022-11-02T06:48:59;9.30;99.90
17421;DHT22;8828;48.800;9.540;2022-11-02T06:51:27;9.30;99.90
17421;DHT22;8828;48.800;9.540;2022-11-02T06:53:55;9.40;99.90
17421;DHT22;8828;48.800;9.540;2022-11-02T06:56:22;9.40;99.90
17421;DHT22;8828;48.800;9.540;2022-11-02T06:58:50;9.50;99.90
17421;DHT22;8828;48.800;9.540;2022-11-02T07:01:18;9.50;99.90
17421;DHT22;8828;48.800;9.540;2022-11-02T07:03:46;9.60;99.90
17421;DHT22;8828;48.800;9.540;2022-11-02T07:06:15;9.60;99.90
17421;DHT22;8828;48.800;9.540;2022-11-02T07:08:43;9.70;99.90
17421;DHT22;8828;48.800;9.540;2022-11-02T07:11:12;9.80;99.90
17421;DHT22;8828;48.800;9.540;2022-11-02T07:13:41;9.90;99.90
17421;DHT22;8828;48.800;9.540;2022-11-02T07:16:09;10.00;99.90
17421;DHT22;8828;48.800;9.540;2022-11-02T07:18:37;10.10;99.90
17421;DHT22;8828;48.800;9.540;2022-11-02T07:21:05;10.10;99.90
17421;DHT22;8828;48.800;9.540;2022-11-02T07:23:35;10.20;99.90
17421;DHT22;8828;48.800;9.540;2022-11-02T07:26:03;10.20;99.90
17421;DHT22;8828;48.800;9.540;2022-11-02T07:28:31;10.30;99.90
17421;DHT22;8828;48.800;9.540;2022-11-02T07:31:02;10.40;99.90
17421;DHT22;8828;48.800;9.540;2022-11-02T07:33:30;10.50;99.90
17421;DHT22;8828;48.800;9.540;2022-11-02T07:35:58;10.60;99.90
17421;DHT22;8828;48.800;9.540;2022-11-02T07:38:25;10.60;99.90
17421;DHT22;8828;48.800;9.540;2022-11-02T07:40:55;10.70;99.90
17421;DHT22;8828;48.800;9.540;2022-11-02T07:43:22;10.70;99.90
17421;DHT22;8828;48.800;9.540;2022-11-02T07:45:50;10.80;99.90
17421;DHT22;8828;48.800;9.540;2022-11-02T07:48:18;10.90;99.90
17421;DHT22;8828;48.800;9.540;2022-11-02T07:50:46;11.00;99.90
17421;DHT22;8828;48.800;9.540;2022-11-02T07:53:14;11.20;99.90
17421;DHT22;8828;48.800;9.540;2022-11-02T07:55:42;11.30;99.90
17421;DHT22;8828;48.800;9.540;2022-11-02T07:58:11;11.50;99.90
17421;DHT22;8828;48.800;9.540;2022-11-02T08:00:40;11.60;99.90
17421;DHT22;8828;48.800;9.540;2022-11-02T08:03:10;11.60;99.90
17421;DHT22;8828;48.800;9.540;2022-11-02T08:05:39;11.60;99.90
17421;DHT22;8828;48.800;9.540;2022-11-02T08:08:10;11.70;99.90
17421;DHT22;8828;48.800;9.540;2022-11-02T08:10:38;11.60;99.90
17421;DHT22;8828;48.800;9.540;2022-11-02T08:13:07;11.60;99.90
17421;DHT22;8828;48.800;9.540;2022-11-02T08:15:37;11.60;99.90
17421;DHT22;8828;48.800;9.540;2022-11-02T08:18:08;11.70;99.90
17421;DHT22;8828;48.800;9.540;2022-11-02T08:20:36;11.70;99.90
17421;DHT22;8828;48.800;9.540;2022-11-02T08:23:04;11.70;99.90
17421;DHT22;8828;48.800;9.540;2022-11-02T08:25:33;11.70;99.90
17421;DHT22;8828;48.800;9.540;2022-11-02T08:28:02;11.80;99.90
17421;DHT22;8828;48.800;9.540;2022-11-02T08:30:32;11.80;99.90
17421;DHT22;8828;48.800;9.540;2022-11-02T08:33:05;11.90;99.90
17421;DHT22;8828;48.800;9.540;2022-11-02T08:35:34;12.10;99.90
17421;DHT22;8828;48.800;9.540;2022-11-02T08:38:03;12.30;99.90
17421;DHT22;8828;48.800;9.540;2022-11-02T08:40:32;12.60;99.90
17421;DHT22;8828;48.800;9.540;2022-11-02T08:43:01;12.90;99.90
17421;DHT22;8828;48.800;9.540;2022-11-02T08:45:31;13.30;99.90
17421;DHT22;8828;48.800;9.540;2022-11-02T08:48:20;13.70;99.90
17421;DHT22;8828;48.800;9.540;2022-11-02T08:50:48;14.30;99.90
17421;DHT22;8828;48.800;9.540;2022-11-02T08:53:16;14.70;99.90
17421;DHT22;8828;48.800;9.540;2022-11-02T08:55:44;15.00;99.90
17421;DHT22;8828;48.800;9.540;2022-11-02T08:58:12;15.20;99.90
17421;DHT22;8828;48.800;9.540;2022-11-02T09:00:40;15.40;99.90
17421;DHT22;8828;48.800;9.540;2022-11-02T09:03:10;15.50;99.90
17421;DHT22;8828;48.800;9.540;2022-11-02T09:05:41;15.60;99.90
17421;DHT22;8828;48.800;9.540;2022-11-02T09:08:11;15.60;99.90
17421;DHT22;8828;48.800;9.540;2022-11-02T09:10:40;15.50;99.90
17421;DHT22;8828;48.800;9.540;2022-11-02T09:13:11;15.30;99.90
17421;DHT22;8828;48.800;9.540;2022-11-02T09:15:40;15.10;99.90
17421;DHT22;8828;48.800;9.540;2022-11-02T09:18:08;14.90;99.90
17421;DHT22;8828;48.800;9.540;2022-11-02T09:20:36;14.80;99.90
17421;DHT22;8828;48.800;9.540;2022-11-02T09:23:05;14.70;99.90
17421;DHT22;8828;48.800;9.540;2022-11-02T09:25:33;14.60;99.90
17421;DHT22;8828;48.800;9.540;2022-11-02T09:28:01;14.50;99.90
17421;DHT22;8828;48.800;9.540;2022-11-02T09:30:29;14.50;99.90
17421;DHT22;8828;48.800;9.540;2022-11-02T09:32:58;14.50;99.90
17421;DHT22;8828;48.800;9.540;2022-11-02T09:35:27;14.50;99.90
17421;DHT22;8828;48.800;9.540;2022-11-02T09:37:56;14.50;99.90
17421;DHT22;8828;48.800;9.540;2022-11-02T09:40:27;14.60;99.90
17421;DHT22;8828;48.800;9.540;2022-11-02T09:43:03;14.70;99.90
17421;DHT22;8828;48.800;9.540;2022-11-02T09:45:35;14.90;99.90
17421;DHT22;8828;48.800;9.540;2022-11-02T09:48:11;15.00;99.90
17421;DHT22;8828;48.800;9.540;2022-11-02T09:50:52;15.10;99.90
17421;DHT22;8828;48.800;9.540;2022-11-02T09:53:33;15.10;99.90
17421;DHT22;8828;48.800;9.540;2022-11-02T09:56:05;15.20;99.90
17421;DHT22;8828;48.800;9.540;2022-11-02T09:58:37;15.10;99.90
17421;DHT22;8828;48.800;9.540;2022-11-02T10:01:15;15.10;99.90
17421;DHT22;8828;48.800;9.540;2022-11-02T10:04:05;15.00;99.90
17421;DHT22;8828;48.800;9.540;2022-11-02T10:06:43;15.00;99.90
17421;DHT22;8828;48.800;9.540;2022-11-02T10:09:18;15.00;99.90
17421;DHT22;8828;48.800;9.540;2022-11-02T10:11:54;15.00;99.90
17421;DHT22;8828;48.800;9.540;2022-11-02T10:14:27;15.00;99.90
17421;DHT22;8828;48.800;9.540;2022-11-02T10:17:02;14.90;99.90
17421;DHT22;8828;48.800;9.540;2022-11-02T10:19:35;14.90;99.90
17421;DHT22;8828;48.800;9.540;2022-11-02T10:22:03;14.70;99.90
17421;DHT22;8828;48.800;9.540;2022-11-02T10:24:36;14.80;99.90
17421;DHT22;8828;48.800;9.540;2022-11-02T10:27:14;14.80;99.90
17421;DHT22;8828;48.800;9.540;2022-11-02T10:29:47;14.90;99.90
17421;DHT22;8828;48.800;9.540;2022-11-02T10:32:16;14.90;99.90
17421;DHT22;8828;48.800;9.540;2022-11-02T10:34:44;15.10;99.90
17421;DHT22;8828;48.800;9.540;2022-11-02T10:37:43;15.20;99.90
17421;DHT22;8828;48.800;9.540;2022-11-02T10:40:22;15.30;99.90
17421;DHT22;8828;48.800;9.540;2022-11-02T10:43:04;15.30;99.90
17421;DHT22;8828;48.800;9.540;2022-11-02T10:45:46;15.40;99.90
17421;DHT22;8828;48.800;9.540;2022-11-02T10:48:25;15.40;99.90
17421;DHT22;8828;48.800;9.540;2022-11-02T10:51:02;15.50;99.90
17421;DHT22;8828;48.800;9.540;2022-11-02T10:53:35;15.60;99.90
17421;DHT22;8828;48.800;9.540;2022-11-02T10:56:13;15.70;99.90
17421;DHT22;8828;48.800;9.540;2022-11-02T10:58:53;15.80;99.90
17421;DHT22;8828;48.800;9.540;2022-11-02T11:01:22;16.00;99.90
17421;DHT22;8828;48.800;9.540;2022-11-02T11:03:58;16.10;99.90
17421;DHT22;8828;48.800;9.540;2022-11-02T11:06:29;16.20;99.90
17421;DHT22;8828;48.800;9.540;2022-11-02T11:08:59;16.20;99.90
17421;DHT22;8828;48.800;9.540;2022-11-02T11:11:30;16.20;99.90
17421;DHT22;8828;48.800;9.540;2022-11-02T11:14:02;16.00;99.90
17421;DHT22;8828;48.800;9.540;2022-11-02T11:16:52;15.90;99.90
17421;DHT22;8828;48.800;9.540;2022-11-02T11:19:28;15.70;99.90
17421;DHT22;8828;48.800;9.540;2022-11-02T11:22:24;15.50;99.90
17421;DHT22;8828;48.800;9.540;2022-11-02T11:24:52;15.30;99.90
17421;DHT22;8828;48.800;9.540;2022-11-02T11:27:21;15.20;99.90
17421;DHT22;8828;48.800;9.540;2022-11-02T11:29:55;15.00;99.90
17421;DHT22;8828;48.800;9.540;2022-11-02T11:32:25;14.90;99.90
17421;DHT22;8828;48.800;9.540;2022-11-02T11:34:58;14.80;99.90
17421;DHT22;8828;48.800;9.540;2022-11-02T11:37:27;14.70;99.90
17421;DHT22;8828;48.800;9.540;2022-11-02T11:39:59;14.60;99.90
17421;DHT22;8828;48.800;9.540;2022-11-02T11:42:29;14.60;99.90
17421;DHT22;8828;48.800;9.540;2022-11-02T11:45:02;14.70;99.90
17421;DHT22;8828;48.800;9.540;2022-11-02T11:47:33;14.90;99.90
17421;DHT22;8828;48.800;9.540;2022-11-02T11:50:05;15.50;99.90
17421;DHT22;8828;48.800;9.540;2022-11-02T11:52:39;16.10;99.90
17421;DHT22;8828;48.800;9.540;2022-11-02T11:55:22;16.90;99.90
17421;DHT22;8828;48.800;9.540;2022-11-02T11:58:04;17.60;99.90
17421;DHT22;8828;48.800;9.540;2022-11-02T12:00:34;18.30;99.90
17421;DHT22;8828;48.800;9.540;2022-11-02T12:03:04;18.60;99.90
17421;DHT22;8828;48.800;9.540;2022-11-02T12:05:41;18.50;99.90
17421;DHT22;8828;48.800;9.540;2022-11-02T12:11:21;18.60;99.90
17421;DHT22;8828;48.800;9.540;2022-11-02T12:14:04;19.40;99.90
17421;DHT22;8828;48.800;9.540;2022-11-02T12:16:54;20.60;99.90
17421;DHT22;8828;48.800;9.540;2022-11-02T12:19:35;22.70;99.90
17421;DHT22;8828;48.800;9.540;2022-11-02T12:22:12;24.60;99.90
17421;DHT22;8828;48.800;9.540;2022-11-02T12:25:05;25.80;98.90
17421;DHT22;8828;48.800;9.540;2022-11-02T12:27:42;25.00;96.10
17421;DHT22;8828;48.800;9.540;2022-11-02T12:30:16;24.00;96.20
17421;DHT22;8828;48.800;9.540;2022-11-02T12:33:02;22.90;97.10
17421;DHT22;8828;48.800;9.540;2022-11-02T12:38:50;21.70;99.00
17421;DHT22;8828;48.800;9.540;2022-11-02T12:41:33;21.20;99.60
17421;DHT22;8828;48.800;9.540;2022-11-02T12:44:14;20.60;99.90
17421;DHT22;8828;48.800;9.540;2022-11-02T12:46:47;20.00;99.90
17421;DHT22;8828;48.800;9.540;2022-11-02T12:49:32;19.60;99.90
17421;DHT22;8828;48.800;9.540;2022-11-02T12:52:12;19.20;99.90
17421;DHT22;8828;48.800;9.540;2022-11-02T12:54:47;19.30;99.90
17421;DHT22;8828;48.800;9.540;2022-11-02T12:57:17;19.20;99.90
17421;DHT22;8828;48.800;9.540;2022-11-02T12:59:49;18.90;99.90
17421;DHT22;8828;48.800;9.540;2022-11-02T13:02:24;18.70;99.90
17421;DHT22;8828;48.800;9.540;2022-11-02T13:04:57;18.80;99.90
17421;DHT22;8828;48.800;9.540;2022-11-02T13:07:30;18.60;99.90
17421;DHT22;8828;48.800;9.540;2022-11-02T13:10:01;18.60;99.90
17421;DHT22;8828;48.800;9.540;2022-11-02T13:12:32;18.70;99.90
17421;DHT22;8828;48.800;9.540;2022-11-02T13:15:03;18.60;99.90
17421;DHT22;8828;48.800;9.540;2022-11-02T13:17:40;18.70;99.90
17421;DHT22;8828;48.800;9.540;2022-11-02T13:20:16;18.70;99.90
17421;DHT22;8828;48.800;9.540;2022-11-02T13:22:48;18.60;99.90
17421;DHT22;8828;48.800;9.540;2022-11-02T13:25:20;18.30;99.90
17421;DHT22;8828;48.800;9.540;2022-11-02T13:27:52;18.30;99.90
17421;DHT22;8828;48.800;9.540;2022-11-02T13:30:20;18.30;99.90
17421;DHT22;8828;48.800;9.540;2022-11-02T13:32:53;18.30;99.90
17421;DHT22;8828;48.800;9.540;2022-11-02T13:35:29;18.40;99.90
17421;DHT22;8828;48.800;9.540;2022-11-02T13:38:03;18.50;99.90
17421;DHT22;8828;48.800;9.540;2022-11-02T13:40:36;18.50;99.90
17421;DHT22;8828;48.800;9.540;2022-11-02T13:43:18;18.50;99.90
17421;DHT22;8828;48.800;9.540;2022-11-02T13:46:04;18.50;99.90
17421;DHT22;8828;48.800;9.540;2022-11-02T13:48:46;18.50;99.90
17421;DHT22;8828;48.800;9.540;2022-11-02T13:51:24;18.50;99.90
17421;DHT22;8828;48.800;9.540;2022-11-02T13:53:57;18.50;99.90
17421;DHT22;8828;48.800;9.540;2022-11-02T13:56:27;18.50;99.90
17421;DHT22;8828;48.800;9.540;2022-11-02T13:58:59;18.50;99.90
17421;DHT22;8828;48.800;9.540;2022-11-02T14:01:30;18.50;99.90
17421;DHT22;8828;48.800;9.540;2022-11-02T14:04:03;18.50;99.90
17421;DHT22;8828;48.800;9.540;2022-11-02T14:06:44;18.40;99.90
17421;DHT22;8828;48.800;9.540;2022-11-02T14:09:23;18.30;99.90
17421;DHT22;8828;48.800;9.540;2022-11-02T14:12:23;18.00;99.90
17421;DHT22;8828;48.800;9.540;2022-11-02T14:18:02;17.50;99.90
17421;DHT22;8828;48.800;9.540;2022-11-02T14:20:36;17.30;99.90
17421;DHT22;8828;48.800;9.540;2022-11-02T14:23:33;17.10;99.90
17421;DHT22;8828;48.800;9.540;2022-11-02T14:26:02;17.00;99.90
17421;DHT22;8828;48.800;9.540;2022-11-02T14:28:32;16.80;99.90
17421;DHT22;8828;48.800;9.540;2022-11-02T14:34:22;16.60;99.90
17421;DHT22;8828;48.800;9.540;2022-11-02T14:37:04;16.50;99.90
17421;DHT22;8828;48.800;9.540;2022-11-02T14:39:46;16.40;99.90
17421;DHT22;8828;48.800;9.540;2022-11-02T14:42:35;16.30;99.90
17421;DHT22;8828;48.800;9.540;2022-11-02T14:45:19;16.20;99.90
17421;DHT22;8828;48.800;9.540;2022-11-02T14:47:55;16.10;99.90
17421;DHT22;8828;48.800;9.540;2022-11-02T14:50:24;16.00;99.90
17421;DHT22;8828;48.800;9.540;2022-11-02T14:52:57;15.80;99.90
17421;DHT22;8828;48.800;9.540;2022-11-02T14:55:29;15.70;99.90
17421;DHT22;8828;48.800;9.540;2022-11-02T14:58:00;15.60;99.90
17421;DHT22;8828;48.800;9.540;2022-11-02T15:00:37;15.50;99.90
17421;DHT22;8828;48.800;9.540;2022-11-02T15:03:24;15.40;99.90
17421;DHT22;8828;48.800;9.540;2022-11-02T15:05:58;15.30;99.90
17421;DHT22;8828;48.800;9.540;2022-11-02T15:08:31;15.20;99.90
17421;DHT22;8828;48.800;9.540;2022-11-02T15:14:38;15.00;99.90
17421;DHT22;8828;48.800;9.540;2022-11-02T15:17:52;14.90;99.90
17421;DHT22;8828;48.800;9.540;2022-11-02T15:20:31;14.80;99.90
17421;DHT22;8828;48.800;9.540;2022-11-02T15:23:17;14.70;99.90
17421;DHT22;8828;48.800;9.540;2022-11-02T15:25:57;14.60;99.90
17421;DHT22;8828;48.800;9.540;2022-11-02T15:28:28;14.50;99.90
17421;DHT22;8828;48.800;9.540;2022-11-02T15:31:03;14.40;99.90
17421;DHT22;8828;48.800;9.540;2022-11-02T15:33:35;14.30;99.90
17421;DHT22;8828;48.800;9.540;2022-11-02T15:36:06;14.20;99.90
17421;DHT22;8828;48.800;9.540;2022-11-02T15:38:35;14.10;99.90
17421;DHT22;8828;48.800;9.540;2022-11-02T15:41:17;14.00;99.90
17421;DHT22;8828;48.800;9.540;2022-11-02T15:44:05;13.90;99.90
17421;DHT22;8828;48.800;9.540;2022-11-02T15:46:45;13.90;99.90
17421;DHT22;8828;48.800;9.540;2022-11-02T15:49:37;13.80;99.90
17421;DHT22;8828;48.800;9.540;2022-11-02T15:52:16;13.70;99.90
17421;DHT22;8828;48.800;9.540;2022-11-02T15:54:58;13.50;99.90
17421;DHT22;8828;48.800;9.540;2022-11-02T15:57:39;13.50;99.90
17421;DHT22;8828;48.800;9.540;2022-11-02T16:00:16;13.30;99.90
17421;DHT22;8828;48.800;9.540;2022-11-02T16:02:46;13.30;99.90
17421;DHT22;8828;48.800;9.540;2022-11-02T16:05:18;13.20;99.90
17421;DHT22;8828;48.800;9.540;2022-11-02T16:07:47;13.10;99.90
17421;DHT22;8828;48.800;9.540;2022-11-02T16:10:36;13.10;99.90
17421;DHT22;8828;48.800;9.540;2022-11-02T16:13:12;13.00;99.90
17421;DHT22;8828;48.800;9.540;2022-11-02T16:15:44;12.90;99.90
17421;DHT22;8828;48.800;9.540;2022-11-02T16:18:25;12.90;99.90
17421;DHT22;8828;48.800;9.540;2022-11-02T16:20:55;12.80;99.90
17421;DHT22;8828;48.800;9.540;2022-11-02T16:23:26;12.70;99.90
17421;DHT22;8828;48.800;9.540;2022-11-02T16:25:56;12.70;99.90
17421;DHT22;8828;48.800;9.540;2022-11-02T16:28:26;12.60;99.90
17421;DHT22;8828;48.800;9.540;2022-11-02T16:31:02;12.60;99.90
17421;DHT22;8828;48.800;9.540;2022-11-02T16:33:42;12.60;99.90
17421;DHT22;8828;48.800;9.540;2022-11-02T16:36:13;12.50;99.90
17421;DHT22;8828;48.800;9.540;2022-11-02T16:38:46;12.40;99.90
17421;DHT22;8828;48.800;9.540;2022-11-02T16:41:15;12.40;99.90
17421;DHT22;8828;48.800;9.540;2022-11-02T16:43:44;12.40;99.90